Scandia, Kansas
Current Conditions -  °F | °C
As of 6:55 AM on Sunday 23 Nov 2014 (Local Time) from KCNK Reporting Station
Overcast Overcast  
Wind Chill: 51°   Ceiling: 3300
Heat Index: 51°   Visibility: 10mi
Dew Point: 50°   Wind: 12mph
Humidity: 96%   Direction: 180°S
Pressure: 29.49"   Gusts: NA
Location:  39.79°N, 97.78°W
Report Text: KCNK 231255Z AUTO 18010KT 10SM OVC033 11/10 A2949 RMK AO2 SLP981 T01060100
Loading
Personal Weather Stations






























Interactive Weather Map New forecast layout! Learn more

10-Day Weather Forecast

Advertisements
Track Severe Weather on mobile